sensor_id;sensor_type;location;lat;lon;timestamp;temperature;humidity
33428;DHT22;19769;48.150;16.306;2023-05-16T00:00:19;14.70;99.90
33428;DHT22;19769;48.150;16.306;2023-05-16T00:02:45;14.70;99.90
33428;DHT22;19769;48.150;16.306;2023-05-16T00:05:11;14.70;99.90
33428;DHT22;19769;48.150;16.306;2023-05-16T00:07:41;14.70;99.90
33428;DHT22;19769;48.150;16.306;2023-05-16T00:10:08;14.70;99.90
33428;DHT22;19769;48.150;16.306;2023-05-16T00:12:34;14.80;99.90
33428;DHT22;19769;48.150;16.306;2023-05-16T00:15:01;14.80;99.90
33428;DHT22;19769;48.150;16.306;2023-05-16T00:17:27;14.70;99.90
33428;DHT22;19769;48.150;16.306;2023-05-16T00:19:53;14.70;99.90
33428;DHT22;19769;48.150;16.306;2023-05-16T00:22:25;14.70;99.90
33428;DHT22;19769;48.150;16.306;2023-05-16T00:24:51;14.70;99.90
33428;DHT22;19769;48.150;16.306;2023-05-16T00:27:17;14.70;99.90
33428;DHT22;19769;48.150;16.306;2023-05-16T00:29:43;14.80;99.90
33428;DHT22;19769;48.150;16.306;2023-05-16T00:32:08;14.80;99.90
33428;DHT22;19769;48.150;16.306;2023-05-16T00:34:34;14.80;99.90
33428;DHT22;19769;48.150;16.306;2023-05-16T00:37:00;14.70;99.90
33428;DHT22;19769;48.150;16.306;2023-05-16T00:39:26;14.80;99.90
33428;DHT22;19769;48.150;16.306;2023-05-16T00:41:51;14.80;99.90
33428;DHT22;19769;48.150;16.306;2023-05-16T00:44:17;14.80;99.90
33428;DHT22;19769;48.150;16.306;2023-05-16T00:46:43;14.80;99.90
33428;DHT22;19769;48.150;16.306;2023-05-16T00:49:09;14.80;99.90
33428;DHT22;19769;48.150;16.306;2023-05-16T00:51:35;14.80;99.90
33428;DHT22;19769;48.150;16.306;2023-05-16T00:54:01;14.80;99.90
33428;DHT22;19769;48.150;16.306;2023-05-16T00:56:27;14.70;99.90
33428;DHT22;19769;48.150;16.306;2023-05-16T00:58:53;14.80;99.90
33428;DHT22;19769;48.150;16.306;2023-05-16T01:01:18;14.80;99.90
33428;DHT22;19769;48.150;16.306;2023-05-16T01:03:46;14.90;99.90
33428;DHT22;19769;48.150;16.306;2023-05-16T01:06:12;14.90;99.90
33428;DHT22;19769;48.150;16.306;2023-05-16T01:08:38;14.80;99.90
33428;DHT22;19769;48.150;16.306;2023-05-16T01:14:11;14.90;99.90
33428;DHT22;19769;48.150;16.306;2023-05-16T01:18:56;14.90;99.90
33428;DHT22;19769;48.150;16.306;2023-05-16T01:21:36;14.90;99.90
33428;DHT22;19769;48.150;16.306;2023-05-16T01:24:07;14.90;99.90
33428;DHT22;19769;48.150;16.306;2023-05-16T01:26:34;14.90;99.90
33428;DHT22;19769;48.150;16.306;2023-05-16T01:29:00;14.90;99.90
33428;DHT22;19769;48.150;16.306;2023-05-16T01:31:26;14.90;99.90
33428;DHT22;19769;48.150;16.306;2023-05-16T01:33:53;14.90;99.90
33428;DHT22;19769;48.150;16.306;2023-05-16T01:36:43;14.90;99.90
33428;DHT22;19769;48.150;16.306;2023-05-16T01:39:06;14.90;99.90
33428;DHT22;19769;48.150;16.306;2023-05-16T01:44:30;14.80;99.90
33428;DHT22;19769;48.150;16.306;2023-05-16T01:46:58;14.80;99.90
33428;DHT22;19769;48.150;16.306;2023-05-16T01:49:38;14.80;99.90
33428;DHT22;19769;48.150;16.306;2023-05-16T01:52:19;14.80;99.90
33428;DHT22;19769;48.150;16.306;2023-05-16T01:54:45;14.90;99.90
33428;DHT22;19769;48.150;16.306;2023-05-16T01:57:12;14.80;99.90
33428;DHT22;19769;48.150;16.306;2023-05-16T01:59:38;14.90;99.90
33428;DHT22;19769;48.150;16.306;2023-05-16T02:02:04;14.90;99.90
33428;DHT22;19769;48.150;16.306;2023-05-16T02:04:30;14.90;99.90
33428;DHT22;19769;48.150;16.306;2023-05-16T02:06:56;14.90;99.90
33428;DHT22;19769;48.150;16.306;2023-05-16T02:09:21;14.90;99.90
33428;DHT22;19769;48.150;16.306;2023-05-16T02:11:47;14.80;99.90
33428;DHT22;19769;48.150;16.306;2023-05-16T02:14:13;14.80;99.90
33428;DHT22;19769;48.150;16.306;2023-05-16T02:16:38;14.80;99.90
33428;DHT22;19769;48.150;16.306;2023-05-16T02:19:04;14.80;99.90
33428;DHT22;19769;48.150;16.306;2023-05-16T02:21:30;14.80;99.90
33428;DHT22;19769;48.150;16.306;2023-05-16T02:23:56;14.90;99.90
33428;DHT22;19769;48.150;16.306;2023-05-16T02:26:21;14.90;99.90
33428;DHT22;19769;48.150;16.306;2023-05-16T02:28:47;14.80;99.90
33428;DHT22;19769;48.150;16.306;2023-05-16T02:31:28;14.90;99.90
33428;DHT22;19769;48.150;16.306;2023-05-16T02:33:55;14.90;99.90
33428;DHT22;19769;48.150;16.306;2023-05-16T02:36:20;14.80;99.90
33428;DHT22;19769;48.150;16.306;2023-05-16T02:38:47;14.80;99.90
33428;DHT22;19769;48.150;16.306;2023-05-16T02:41:12;14.90;99.90
33428;DHT22;19769;48.150;16.306;2023-05-16T02:43:38;14.80;99.90
33428;DHT22;19769;48.150;16.306;2023-05-16T02:46:04;14.80;99.90
33428;DHT22;19769;48.150;16.306;2023-05-16T02:48:30;14.70;99.90
33428;DHT22;19769;48.150;16.306;2023-05-16T02:50:57;14.70;99.90
33428;DHT22;19769;48.150;16.306;2023-05-16T02:53:23;14.70;99.90
33428;DHT22;19769;48.150;16.306;2023-05-16T02:55:48;14.70;99.90
33428;DHT22;19769;48.150;16.306;2023-05-16T02:58:14;14.70;99.90
33428;DHT22;19769;48.150;16.306;2023-05-16T03:00:40;14.70;99.90
33428;DHT22;19769;48.150;16.306;2023-05-16T03:03:08;14.70;99.90
33428;DHT22;19769;48.150;16.306;2023-05-16T03:05:34;14.70;99.90
33428;DHT22;19769;48.150;16.306;2023-05-16T03:07:59;14.70;99.90
33428;DHT22;19769;48.150;16.306;2023-05-16T03:10:26;14.70;99.90
33428;DHT22;19769;48.150;16.306;2023-05-16T03:12:51;14.60;99.90
33428;DHT22;19769;48.150;16.306;2023-05-16T03:15:17;14.60;99.90
33428;DHT22;19769;48.150;16.306;2023-05-16T03:17:43;14.60;99.90
33428;DHT22;19769;48.150;16.306;2023-05-16T03:20:09;14.50;99.90
33428;DHT22;19769;48.150;16.306;2023-05-16T03:22:35;14.50;99.90
33428;DHT22;19769;48.150;16.306;2023-05-16T03:25:01;14.40;99.90
33428;DHT22;19769;48.150;16.306;2023-05-16T03:27:27;14.40;99.90
33428;DHT22;19769;48.150;16.306;2023-05-16T03:29:52;14.50;99.90
33428;DHT22;19769;48.150;16.306;2023-05-16T03:32:18;14.60;99.90
33428;DHT22;19769;48.150;16.306;2023-05-16T03:34:44;14.60;99.90
33428;DHT22;19769;48.150;16.306;2023-05-16T03:37:11;14.60;99.90
33428;DHT22;19769;48.150;16.306;2023-05-16T03:39:39;14.60;99.90
33428;DHT22;19769;48.150;16.306;2023-05-16T03:42:05;14.50;99.90
33428;DHT22;19769;48.150;16.306;2023-05-16T03:44:31;14.60;99.90
33428;DHT22;19769;48.150;16.306;2023-05-16T03:46:57;14.60;99.90
33428;DHT22;19769;48.150;16.306;2023-05-16T03:49:25;14.70;99.90
33428;DHT22;19769;48.150;16.306;2023-05-16T03:51:54;14.70;99.90
33428;DHT22;19769;48.150;16.306;2023-05-16T03:54:20;14.60;99.90
33428;DHT22;19769;48.150;16.306;2023-05-16T03:56:46;14.60;99.90
33428;DHT22;19769;48.150;16.306;2023-05-16T03:59:11;14.60;99.90
33428;DHT22;19769;48.150;16.306;2023-05-16T04:01:37;14.60;99.90
33428;DHT22;19769;48.150;16.306;2023-05-16T04:04:03;14.60;99.90
33428;DHT22;19769;48.150;16.306;2023-05-16T04:06:28;14.70;99.90
33428;DHT22;19769;48.150;16.306;2023-05-16T04:08:54;14.70;99.90
33428;DHT22;19769;48.150;16.306;2023-05-16T04:11:20;14.70;99.90
33428;DHT22;19769;48.150;16.306;2023-05-16T04:13:46;14.70;99.90
33428;DHT22;19769;48.150;16.306;2023-05-16T04:16:11;14.70;99.90
33428;DHT22;19769;48.150;16.306;2023-05-16T04:18:37;14.80;99.90
33428;DHT22;19769;48.150;16.306;2023-05-16T04:21:03;14.80;99.90
33428;DHT22;19769;48.150;16.306;2023-05-16T04:23:28;14.80;99.90
33428;DHT22;19769;48.150;16.306;2023-05-16T04:25:54;14.90;99.90
33428;DHT22;19769;48.150;16.306;2023-05-16T04:28:20;14.90;99.90
33428;DHT22;19769;48.150;16.306;2023-05-16T04:30:46;14.90;99.90
33428;DHT22;19769;48.150;16.306;2023-05-16T04:33:13;14.90;99.90
33428;DHT22;19769;48.150;16.306;2023-05-16T04:35:40;15.00;99.90
33428;DHT22;19769;48.150;16.306;2023-05-16T04:38:06;15.00;99.90
33428;DHT22;19769;48.150;16.306;2023-05-16T04:40:31;15.00;99.90
33428;DHT22;19769;48.150;16.306;2023-05-16T04:42:57;15.00;99.90
33428;DHT22;19769;48.150;16.306;2023-05-16T04:45:23;15.10;99.90
33428;DHT22;19769;48.150;16.306;2023-05-16T04:47:48;15.20;99.90
33428;DHT22;19769;48.150;16.306;2023-05-16T04:50:15;15.20;99.90
33428;DHT22;19769;48.150;16.306;2023-05-16T04:52:42;15.30;99.90
33428;DHT22;19769;48.150;16.306;2023-05-16T04:55:08;15.40;99.90
33428;DHT22;19769;48.150;16.306;2023-05-16T04:57:34;15.40;99.90
33428;DHT22;19769;48.150;16.306;2023-05-16T04:59:59;15.40;99.90
33428;DHT22;19769;48.150;16.306;2023-05-16T05:02:25;15.50;99.90
33428;DHT22;19769;48.150;16.306;2023-05-16T05:04:51;15.40;99.90
33428;DHT22;19769;48.150;16.306;2023-05-16T05:07:17;15.40;99.90
33428;DHT22;19769;48.150;16.306;2023-05-16T05:09:42;15.50;99.90
33428;DHT22;19769;48.150;16.306;2023-05-16T05:12:08;15.50;99.90
33428;DHT22;19769;48.150;16.306;2023-05-16T05:14:34;15.50;99.90
33428;DHT22;19769;48.150;16.306;2023-05-16T05:17:00;15.50;99.90
33428;DHT22;19769;48.150;16.306;2023-05-16T05:19:25;15.60;99.90
33428;DHT22;19769;48.150;16.306;2023-05-16T05:21:51;15.60;99.90
33428;DHT22;19769;48.150;16.306;2023-05-16T05:24:17;15.60;99.90
33428;DHT22;19769;48.150;16.306;2023-05-16T05:26:42;15.60;99.90
33428;DHT22;19769;48.150;16.306;2023-05-16T05:29:08;15.60;99.90
33428;DHT22;19769;48.150;16.306;2023-05-16T05:31:34;15.70;99.90
33428;DHT22;19769;48.150;16.306;2023-05-16T05:33:59;15.80;99.90
33428;DHT22;19769;48.150;16.306;2023-05-16T05:36:25;15.90;99.90
33428;DHT22;19769;48.150;16.306;2023-05-16T05:38:51;15.90;99.90
33428;DHT22;19769;48.150;16.306;2023-05-16T05:41:16;16.00;99.90
33428;DHT22;19769;48.150;16.306;2023-05-16T05:43:42;16.00;99.90
33428;DHT22;19769;48.150;16.306;2023-05-16T05:46:08;16.00;99.90
33428;DHT22;19769;48.150;16.306;2023-05-16T05:48:33;16.00;99.90
33428;DHT22;19769;48.150;16.306;2023-05-16T05:50:59;16.00;99.90
33428;DHT22;19769;48.150;16.306;2023-05-16T05:53:25;16.20;99.90
33428;DHT22;19769;48.150;16.306;2023-05-16T05:55:50;16.20;99.90
33428;DHT22;19769;48.150;16.306;2023-05-16T05:58:16;16.30;99.90
33428;DHT22;19769;48.150;16.306;2023-05-16T06:00:42;16.30;99.90
33428;DHT22;19769;48.150;16.306;2023-05-16T06:03:08;16.40;99.90
33428;DHT22;19769;48.150;16.306;2023-05-16T06:05:34;16.40;99.90
33428;DHT22;19769;48.150;16.306;2023-05-16T06:07:59;16.40;99.90
33428;DHT22;19769;48.150;16.306;2023-05-16T06:10:25;16.40;99.90
33428;DHT22;19769;48.150;16.306;2023-05-16T06:12:51;16.30;99.90
33428;DHT22;19769;48.150;16.306;2023-05-16T06:15:16;16.20;99.90
33428;DHT22;19769;48.150;16.306;2023-05-16T06:17:42;16.10;99.90
33428;DHT22;19769;48.150;16.306;2023-05-16T06:20:09;16.10;99.90
33428;DHT22;19769;48.150;16.306;2023-05-16T06:22:37;16.10;99.90
33428;DHT22;19769;48.150;16.306;2023-05-16T06:25:03;16.10;99.90
33428;DHT22;19769;48.150;16.306;2023-05-16T06:27:29;16.10;99.90
33428;DHT22;19769;48.150;16.306;2023-05-16T06:29:55;16.10;99.90
33428;DHT22;19769;48.150;16.306;2023-05-16T06:32:21;16.10;99.90
33428;DHT22;19769;48.150;16.306;2023-05-16T06:34:47;17.10;99.90
33428;DHT22;19769;48.150;16.306;2023-05-16T06:37:13;16.00;99.90
33428;DHT22;19769;48.150;16.306;2023-05-16T06:39:38;16.10;99.90
33428;DHT22;19769;48.150;16.306;2023-05-16T06:42:04;16.00;99.90
33428;DHT22;19769;48.150;16.306;2023-05-16T06:44:31;16.10;99.90
33428;DHT22;19769;48.150;16.306;2023-05-16T06:46:57;16.10;99.90
33428;DHT22;19769;48.150;16.306;2023-05-16T06:49:23;16.10;99.90
33428;DHT22;19769;48.150;16.306;2023-05-16T06:51:48;16.20;99.90
33428;DHT22;19769;48.150;16.306;2023-05-16T06:54:14;16.20;99.90
33428;DHT22;19769;48.150;16.306;2023-05-16T06:56:39;16.30;99.90
33428;DHT22;19769;48.150;16.306;2023-05-16T06:59:05;16.30;99.90
33428;DHT22;19769;48.150;16.306;2023-05-16T07:01:31;16.30;99.90
33428;DHT22;19769;48.150;16.306;2023-05-16T07:03:56;16.30;99.90
33428;DHT22;19769;48.150;16.306;2023-05-16T07:06:22;16.30;99.90
33428;DHT22;19769;48.150;16.306;2023-05-16T07:08:48;16.30;99.90
33428;DHT22;19769;48.150;16.306;2023-05-16T07:11:13;16.20;99.90
33428;DHT22;19769;48.150;16.306;2023-05-16T07:13:39;16.20;99.90
33428;DHT22;19769;48.150;16.306;2023-05-16T07:16:05;16.30;99.90
33428;DHT22;19769;48.150;16.306;2023-05-16T07:18:32;16.30;99.90
33428;DHT22;19769;48.150;16.306;2023-05-16T07:20:58;16.20;99.90
33428;DHT22;19769;48.150;16.306;2023-05-16T07:23:24;16.20;99.90
33428;DHT22;19769;48.150;16.306;2023-05-16T07:25:49;16.10;99.90
33428;DHT22;19769;48.150;16.306;2023-05-16T07:28:15;16.10;99.90
33428;DHT22;19769;48.150;16.306;2023-05-16T07:30:41;16.10;99.90
33428;DHT22;19769;48.150;16.306;2023-05-16T07:33:07;16.10;99.90
33428;DHT22;19769;48.150;16.306;2023-05-16T07:35:32;16.10;99.90
33428;DHT22;19769;48.150;16.306;2023-05-16T07:37:59;16.10;99.90
33428;DHT22;19769;48.150;16.306;2023-05-16T07:40:24;16.10;99.90
33428;DHT22;19769;48.150;16.306;2023-05-16T07:42:53;16.10;99.90
33428;DHT22;19769;48.150;16.306;2023-05-16T07:45:19;15.90;99.90
33428;DHT22;19769;48.150;16.306;2023-05-16T07:47:45;15.90;99.90
33428;DHT22;19769;48.150;16.306;2023-05-16T07:50:11;15.80;99.90
33428;DHT22;19769;48.150;16.306;2023-05-16T07:52:36;15.90;99.90
33428;DHT22;19769;48.150;16.306;2023-05-16T07:55:02;15.80;99.90
33428;DHT22;19769;48.150;16.306;2023-05-16T07:57:28;15.80;99.90
33428;DHT22;19769;48.150;16.306;2023-05-16T07:59:54;15.80;99.90
33428;DHT22;19769;48.150;16.306;2023-05-16T08:02:20;15.80;99.90
33428;DHT22;19769;48.150;16.306;2023-05-16T08:04:46;15.80;99.90
33428;DHT22;19769;48.150;16.306;2023-05-16T08:07:14;15.80;99.90
33428;DHT22;19769;48.150;16.306;2023-05-16T08:09:40;15.80;99.90
33428;DHT22;19769;48.150;16.306;2023-05-16T08:12:06;15.60;99.90
33428;DHT22;19769;48.150;16.306;2023-05-16T08:14:31;15.60;99.90
33428;DHT22;19769;48.150;16.306;2023-05-16T08:16:57;15.60;99.90
33428;DHT22;19769;48.150;16.306;2023-05-16T08:19:23;15.60;99.90
33428;DHT22;19769;48.150;16.306;2023-05-16T08:21:49;15.50;99.90
33428;DHT22;19769;48.150;16.306;2023-05-16T08:24:15;15.50;99.90
33428;DHT22;19769;48.150;16.306;2023-05-16T08:26:40;15.50;99.90
33428;DHT22;19769;48.150;16.306;2023-05-16T08:29:06;15.60;99.90
33428;DHT22;19769;48.150;16.306;2023-05-16T08:31:31;15.60;99.90
33428;DHT22;19769;48.150;16.306;2023-05-16T08:33:57;15.50;99.90
33428;DHT22;19769;48.150;16.306;2023-05-16T08:36:23;15.60;99.90
33428;DHT22;19769;48.150;16.306;2023-05-16T08:38:49;15.70;99.90
33428;DHT22;19769;48.150;16.306;2023-05-16T08:41:15;15.50;99.90
33428;DHT22;19769;48.150;16.306;2023-05-16T08:43:41;15.50;99.90
33428;DHT22;19769;48.150;16.306;2023-05-16T08:46:07;15.60;99.90
33428;DHT22;19769;48.150;16.306;2023-05-16T08:48:32;15.50;99.90
33428;DHT22;19769;48.150;16.306;2023-05-16T08:50:59;15.50;99.90
33428;DHT22;19769;48.150;16.306;2023-05-16T08:53:31;15.50;99.90
33428;DHT22;19769;48.150;16.306;2023-05-16T08:56:01;15.60;99.90
33428;DHT22;19769;48.150;16.306;2023-05-16T08:58:27;15.50;99.90
33428;DHT22;19769;48.150;16.306;2023-05-16T09:00:55;15.50;99.90
33428;DHT22;19769;48.150;16.306;2023-05-16T09:03:20;15.40;99.90
33428;DHT22;19769;48.150;16.306;2023-05-16T09:05:48;15.50;99.90
33428;DHT22;19769;48.150;16.306;2023-05-16T09:08:14;15.40;99.90
33428;DHT22;19769;48.150;16.306;2023-05-16T09:10:40;15.30;99.90
33428;DHT22;19769;48.150;16.306;2023-05-16T09:13:05;15.20;99.90
33428;DHT22;19769;48.150;16.306;2023-05-16T09:15:32;15.20;99.90
33428;DHT22;19769;48.150;16.306;2023-05-16T09:17:59;15.20;99.90
33428;DHT22;19769;48.150;16.306;2023-05-16T09:20:25;15.20;99.90
33428;DHT22;19769;48.150;16.306;2023-05-16T09:22:52;15.20;99.90
33428;DHT22;19769;48.150;16.306;2023-05-16T09:25:18;15.20;99.90
33428;DHT22;19769;48.150;16.306;2023-05-16T09:27:45;15.10;99.90
33428;DHT22;19769;48.150;16.306;2023-05-16T09:30:12;15.00;99.90
33428;DHT22;19769;48.150;16.306;2023-05-16T09:32:41;15.10;99.90
33428;DHT22;19769;48.150;16.306;2023-05-16T09:35:07;16.30;99.90
33428;DHT22;19769;48.150;16.306;2023-05-16T09:37:35;14.90;99.90
33428;DHT22;19769;48.150;16.306;2023-05-16T09:40:01;14.50;99.90
33428;DHT22;19769;48.150;16.306;2023-05-16T09:42:27;14.90;99.90
33428;DHT22;19769;48.150;16.306;2023-05-16T09:44:53;14.90;99.90
33428;DHT22;19769;48.150;16.306;2023-05-16T09:47:20;14.90;99.90
33428;DHT22;19769;48.150;16.306;2023-05-16T09:49:46;14.80;99.90
33428;DHT22;19769;48.150;16.306;2023-05-16T09:52:16;14.90;99.90
33428;DHT22;19769;48.150;16.306;2023-05-16T09:54:41;14.90;99.90
33428;DHT22;19769;48.150;16.306;2023-05-16T09:57:07;14.80;99.90
33428;DHT22;19769;48.150;16.306;2023-05-16T09:59:37;14.90;99.90
33428;DHT22;19769;48.150;16.306;2023-05-16T10:02:03;14.80;99.90
33428;DHT22;19769;48.150;16.306;2023-05-16T10:04:29;14.80;99.90
33428;DHT22;19769;48.150;16.306;2023-05-16T10:06:55;14.80;99.90
33428;DHT22;19769;48.150;16.306;2023-05-16T10:09:21;14.70;99.90
33428;DHT22;19769;48.150;16.306;2023-05-16T10:11:47;14.80;99.90
33428;DHT22;19769;48.150;16.306;2023-05-16T10:14:16;14.80;99.90
33428;DHT22;19769;48.150;16.306;2023-05-16T10:16:42;14.90;99.90
33428;DHT22;19769;48.150;16.306;2023-05-16T10:19:20;14.90;99.90
33428;DHT22;19769;48.150;16.306;2023-05-16T10:21:48;14.90;99.90
33428;DHT22;19769;48.150;16.306;2023-05-16T10:24:16;14.90;99.90
33428;DHT22;19769;48.150;16.306;2023-05-16T10:26:42;14.90;99.90
33428;DHT22;19769;48.150;16.306;2023-05-16T10:29:08;14.90;99.90
33428;DHT22;19769;48.150;16.306;2023-05-16T10:31:34;14.90;99.90
33428;DHT22;19769;48.150;16.306;2023-05-16T10:34:00;14.90;99.90
33428;DHT22;19769;48.150;16.306;2023-05-16T10:36:26;14.90;99.90
33428;DHT22;19769;48.150;16.306;2023-05-16T10:38:52;15.00;99.90
33428;DHT22;19769;48.150;16.306;2023-05-16T10:51:43;16.60;99.90
33428;DHT22;19769;48.150;16.306;2023-05-16T10:54:09;15.00;99.90
33428;DHT22;19769;48.150;16.306;2023-05-16T10:56:37;15.10;99.90
33428;DHT22;19769;48.150;16.306;2023-05-16T10:59:02;15.10;99.90
33428;DHT22;19769;48.150;16.306;2023-05-16T11:01:32;15.20;99.90
33428;DHT22;19769;48.150;16.306;2023-05-16T11:04:09;15.30;99.90
33428;DHT22;19769;48.150;16.306;2023-05-16T11:11:39;15.30;99.90
33428;DHT22;19769;48.150;16.306;2023-05-16T11:14:05;15.40;99.90
33428;DHT22;19769;48.150;16.306;2023-05-16T11:16:31;15.60;99.90
33428;DHT22;19769;48.150;16.306;2023-05-16T11:19:04;15.40;99.90
33428;DHT22;19769;48.150;16.306;2023-05-16T11:22:03;15.50;99.90
33428;DHT22;19769;48.150;16.306;2023-05-16T11:24:26;15.40;99.90
33428;DHT22;19769;48.150;16.306;2023-05-16T11:26:52;15.50;99.90
33428;DHT22;19769;48.150;16.306;2023-05-16T11:29:18;15.60;99.90
33428;DHT22;19769;48.150;16.306;2023-05-16T11:31:44;15.60;99.90
33428;DHT22;19769;48.150;16.306;2023-05-16T11:34:10;15.60;99.90
33428;DHT22;19769;48.150;16.306;2023-05-16T11:36:37;15.60;99.90
33428;DHT22;19769;48.150;16.306;2023-05-16T11:39:06;15.60;99.90
33428;DHT22;19769;48.150;16.306;2023-05-16T11:41:33;15.60;99.90
33428;DHT22;19769;48.150;16.306;2023-05-16T11:43:59;15.60;99.90
33428;DHT22;19769;48.150;16.306;2023-05-16T11:46:25;15.70;99.90
33428;DHT22;19769;48.150;16.306;2023-05-16T11:48:52;15.60;99.90
33428;DHT22;19769;48.150;16.306;2023-05-16T11:51:18;15.60;99.90
33428;DHT22;19769;48.150;16.306;2023-05-16T11:53:45;15.70;99.90
33428;DHT22;19769;48.150;16.306;2023-05-16T11:56:11;14.40;99.90
33428;DHT22;19769;48.150;16.306;2023-05-16T11:58:37;15.50;99.90
33428;DHT22;19769;48.150;16.306;2023-05-16T12:01:04;15.40;99.90
33428;DHT22;19769;48.150;16.306;2023-05-16T12:03:30;15.40;99.90
33428;DHT22;19769;48.150;16.306;2023-05-16T12:05:57;15.30;99.90
33428;DHT22;19769;48.150;16.306;2023-05-16T12:08:23;15.30;99.90
33428;DHT22;19769;48.150;16.306;2023-05-16T12:10:50;15.40;99.90
33428;DHT22;19769;48.150;16.306;2023-05-16T12:13:16;15.60;99.90
33428;DHT22;19769;48.150;16.306;2023-05-16T12:15:42;15.60;99.90
33428;DHT22;19769;48.150;16.306;2023-05-16T12:18:09;15.60;99.90
33428;DHT22;19769;48.150;16.306;2023-05-16T12:20:35;15.60;99.90
33428;DHT22;19769;48.150;16.306;2023-05-16T12:23:01;15.70;99.90
33428;DHT22;19769;48.150;16.306;2023-05-16T12:25:29;15.60;99.90
33428;DHT22;19769;48.150;16.306;2023-05-16T12:28:00;15.60;99.90
33428;DHT22;19769;48.150;16.306;2023-05-16T12:30:27;15.60;99.90
33428;DHT22;19769;48.150;16.306;2023-05-16T12:32:59;15.60;99.90
33428;DHT22;19769;48.150;16.306;2023-05-16T12:35:30;15.60;99.90
33428;DHT22;19769;48.150;16.306;2023-05-16T12:37:55;15.60;99.90
33428;DHT22;19769;48.150;16.306;2023-05-16T12:40:21;15.70;99.90
33428;DHT22;19769;48.150;16.306;2023-05-16T12:42:49;15.70;99.90
33428;DHT22;19769;48.150;16.306;2023-05-16T12:45:16;14.40;99.90
33428;DHT22;19769;48.150;16.306;2023-05-16T12:47:42;15.70;99.90
33428;DHT22;19769;48.150;16.306;2023-05-16T12:50:10;15.80;99.90
33428;DHT22;19769;48.150;16.306;2023-05-16T12:52:48;15.80;99.90
33428;DHT22;19769;48.150;16.306;2023-05-16T12:55:50;15.80;99.90
33428;DHT22;19769;48.150;16.306;2023-05-16T12:58:19;16.10;99.90
33428;DHT22;19769;48.150;16.306;2023-05-16T13:00:59;15.50;99.90
33428;DHT22;19769;48.150;16.306;2023-05-16T13:03:25;15.70;99.90
33428;DHT22;19769;48.150;16.306;2023-05-16T13:05:51;15.60;99.90
33428;DHT22;19769;48.150;16.306;2023-05-16T13:08:17;15.60;99.90
33428;DHT22;19769;48.150;16.306;2023-05-16T13:10:43;14.30;99.90
33428;DHT22;19769;48.150;16.306;2023-05-16T13:13:26;15.50;99.90
33428;DHT22;19769;48.150;16.306;2023-05-16T13:15:57;15.50;99.90
33428;DHT22;19769;48.150;16.306;2023-05-16T13:18:23;15.50;99.90
33428;DHT22;19769;48.150;16.306;2023-05-16T13:20:49;15.40;99.90
33428;DHT22;19769;48.150;16.306;2023-05-16T13:23:15;15.40;99.90
33428;DHT22;19769;48.150;16.306;2023-05-16T13:25:41;15.50;99.90
33428;DHT22;19769;48.150;16.306;2023-05-16T13:28:06;15.40;99.90
33428;DHT22;19769;48.150;16.306;2023-05-16T13:30:32;15.50;99.90
33428;DHT22;19769;48.150;16.306;2023-05-16T13:32:58;15.40;99.90
33428;DHT22;19769;48.150;16.306;2023-05-16T13:35:24;15.40;99.90
33428;DHT22;19769;48.150;16.306;2023-05-16T13:37:50;15.40;99.90
33428;DHT22;19769;48.150;16.306;2023-05-16T13:40:16;15.40;99.90
33428;DHT22;19769;48.150;16.306;2023-05-16T13:42:41;15.40;99.90
33428;DHT22;19769;48.150;16.306;2023-05-16T13:45:07;15.30;99.90
33428;DHT22;19769;48.150;16.306;2023-05-16T13:47:33;15.20;99.90
33428;DHT22;19769;48.150;16.306;2023-05-16T13:49:59;15.20;99.90
33428;DHT22;19769;48.150;16.306;2023-05-16T13:52:30;15.20;99.90
33428;DHT22;19769;48.150;16.306;2023-05-16T13:54:56;15.10;99.90
33428;DHT22;19769;48.150;16.306;2023-05-16T13:57:25;15.10;99.90
33428;DHT22;19769;48.150;16.306;2023-05-16T13:59:55;15.20;99.90
33428;DHT22;19769;48.150;16.306;2023-05-16T14:02:30;15.30;99.90
33428;DHT22;19769;48.150;16.306;2023-05-16T14:05:19;15.40;99.90
33428;DHT22;19769;48.150;16.306;2023-05-16T14:07:44;15.30;99.90
33428;DHT22;19769;48.150;16.306;2023-05-16T14:10:10;15.30;99.90
33428;DHT22;19769;48.150;16.306;2023-05-16T14:12:36;15.30;99.90
33428;DHT22;19769;48.150;16.306;2023-05-16T14:15:02;15.20;99.90
33428;DHT22;19769;48.150;16.306;2023-05-16T14:17:28;15.10;99.90
33428;DHT22;19769;48.150;16.306;2023-05-16T14:19:57;15.10;99.90
33428;DHT22;19769;48.150;16.306;2023-05-16T14:22:23;15.00;99.90
33428;DHT22;19769;48.150;16.306;2023-05-16T14:24:49;15.00;99.90
33428;DHT22;19769;48.150;16.306;2023-05-16T14:27:20;15.00;99.90
33428;DHT22;19769;48.150;16.306;2023-05-16T14:29:46;15.10;99.90
33428;DHT22;19769;48.150;16.306;2023-05-16T14:32:13;15.10;99.90
33428;DHT22;19769;48.150;16.306;2023-05-16T14:34:39;14.90;99.90
33428;DHT22;19769;48.150;16.306;2023-05-16T14:37:05;15.20;99.90
33428;DHT22;19769;48.150;16.306;2023-05-16T14:39:31;15.20;99.90
33428;DHT22;19769;48.150;16.306;2023-05-16T14:41:56;15.20;99.90
33428;DHT22;19769;48.150;16.306;2023-05-16T14:44:22;15.20;99.90
33428;DHT22;19769;48.150;16.306;2023-05-16T14:46:49;15.10;99.90
33428;DHT22;19769;48.150;16.306;2023-05-16T14:49:16;15.00;99.90
33428;DHT22;19769;48.150;16.306;2023-05-16T14:51:41;15.00;99.90
33428;DHT22;19769;48.150;16.306;2023-05-16T14:54:09;15.00;99.90
33428;DHT22;19769;48.150;16.306;2023-05-16T14:56:35;16.20;99.90
33428;DHT22;19769;48.150;16.306;2023-05-16T14:59:01;14.90;99.90
33428;DHT22;19769;48.150;16.306;2023-05-16T15:01:26;14.80;99.90
33428;DHT22;19769;48.150;16.306;2023-05-16T15:03:52;14.80;99.90
33428;DHT22;19769;48.150;16.306;2023-05-16T15:06:18;14.80;99.90
33428;DHT22;19769;48.150;16.306;2023-05-16T15:08:43;14.80;99.90
33428;DHT22;19769;48.150;16.306;2023-05-16T15:11:09;14.90;99.90
33428;DHT22;19769;48.150;16.306;2023-05-16T15:13:35;14.70;99.90
33428;DHT22;19769;48.150;16.306;2023-05-16T15:16:01;14.90;99.90
33428;DHT22;19769;48.150;16.306;2023-05-16T15:18:27;14.80;99.90
33428;DHT22;19769;48.150;16.306;2023-05-16T15:20:52;14.80;99.90
33428;DHT22;19769;48.150;16.306;2023-05-16T15:23:18;14.80;99.90
33428;DHT22;19769;48.150;16.306;2023-05-16T15:25:44;14.80;99.90
33428;DHT22;19769;48.150;16.306;2023-05-16T15:28:09;14.80;99.90
33428;DHT22;19769;48.150;16.306;2023-05-16T15:30:35;14.80;99.90
33428;DHT22;19769;48.150;16.306;2023-05-16T15:33:07;14.80;99.90
33428;DHT22;19769;48.150;16.306;2023-05-16T15:35:33;14.60;99.90